Etusivu
METAR-TAF:

METAR-TAF

Lentoasemat :

Kiirunan lentoasema

Kiruna, Ruotsi

Leveyspiiri: 67-49N, Pituuspiiri: 020-20E, korkeus merenpinnasta: 452 m

Tämänhetkinen sää

Tämä raportti tehtiin 16 minuuttia sitten, kello 02.20 UTC
Tuuli 6 kn pohjoisesta
Lämpötila -2°C
Kosteus 86%
Ilmanpaine 1006 hPa
Näkyvyys 10 km tai enemmän

METAR: ESNQ 190220Z AUTO 01006KT 9999 BKN043/// BKN055/// OVC068/// M02/M04 Q1006

Aika: 04:36 (02:36 UTC)

Sääennuste

Tämä raportti tehtiin 7 tuntia ja 42 minuuttia sitten, kello 18.54 UTC
Ennuste voimassa 18. päivästä klo 18 UTC - 18. päivään klo 22 UTC
Tuuli 3 kn pohjoisesta
Näkyvyys: 5000 m
Hajanaisia pilviä 200 ft:n korkeudessa
Hajonneita pilviä 4500 ft:n korkeudessa
heikkoa lumisadetta
Ajoittain
18. päivästä klo 18 UTC - 18. päivään klo 22 UTC
Näkyvyys: 0700 m
400 ft:n korkeudessa
lumisadetta

TAF: ESNQ 181854Z 1818/1822 35003KT 5000 -SN SCT002 BKN045 TEMPO 1818/1822 0700 SN VV004

Säähavainnot ja -ennusteet yli 4000 lentoasemalta (METAR- ja TAF-raportit).

Käytössä olevat sääasemat on merkitty karttaan keltaisilla ja punaisilla pisteillä.

Aseta hiiri pisteen päälle nähdäksesi sääaseman nimen.

Klikkaa sitten nähdäksesi säähavainnot ja -ennusteet.

Kartan vaihtaminen: klikkaa mustalla rastilla varustettuja vihreitä pisteitä, niin voit zoomata sisään; viivalla varustettua vihreää pistettä, niin voit zoomata ulos tai vihreitä nuolia, niin pääset viereisille kartoille.


METAR-TAF: